createdAt,value
2023-02-14T00:02:39.463Z,102481.59
2023-02-14T00:06:42.798Z,102471.00
2023-02-14T00:10:45.851Z,102472.56
2023-02-14T00:15:07.540Z,102480.06
2023-02-14T00:19:13.805Z,102467.56
2023-02-14T00:23:16.884Z,102474.22
2023-02-14T00:27:19.985Z,102474.91
2023-02-14T00:31:24.627Z,102468.28
2023-02-14T00:35:27.744Z,102471.75
2023-02-14T00:39:30.953Z,102471.88
2023-02-14T00:43:34.041Z,102464.34
2023-02-14T00:47:38.427Z,102469.03
2023-02-14T00:51:41.532Z,102477.66
2023-02-14T00:55:46.229Z,102471.09
2023-02-14T00:59:50.596Z,102471.38
2023-02-14T01:03:55.135Z,102469.44
2023-02-14T01:07:58.177Z,102470.75
2023-02-14T01:12:01.240Z,102466.31
2023-02-14T01:16:07.838Z,102462.47
2023-02-14T01:20:12.767Z,102470.47
2023-02-14T01:24:16.244Z,102464.22
2023-02-14T01:28:19.380Z,102466.00
2023-02-14T01:32:22.463Z,102470.38
2023-02-14T01:36:29.662Z,102472.91
2023-02-14T01:40:32.768Z,102475.47
2023-02-14T01:44:59.297Z,102461.66
2023-02-14T01:49:07.254Z,102463.97
2023-02-14T01:53:17.121Z,102458.13
2023-02-14T01:57:23.408Z,102455.28
2023-02-14T02:01:26.739Z,102461.88
2023-02-14T02:05:29.885Z,102456.25
2023-02-14T02:09:36.782Z,102451.06
2023-02-14T02:13:39.809Z,102448.06
2023-02-14T02:17:54.055Z,102441.41
2023-02-14T02:22:19.261Z,102451.22
2023-02-14T02:27:01.758Z,102444.19
2023-02-14T02:31:31.778Z,102441.19
2023-02-14T02:35:54.435Z,102442.72
2023-02-14T02:40:15.584Z,102438.38
2023-02-14T02:44:22.754Z,102433.22
2023-02-14T02:48:35.986Z,102434.94
2023-02-14T02:53:03.189Z,102429.78
2023-02-14T02:57:13.632Z,102427.59
2023-02-14T03:01:23.069Z,102435.34
2023-02-14T03:05:29.596Z,102435.16
2023-02-14T03:09:58.601Z,102421.13
2023-02-14T03:14:20.751Z,102423.19
2023-02-14T03:18:52.518Z,102431.69
2023-02-14T03:23:05.266Z,102435.47
2023-02-14T03:27:16.440Z,102432.31
2023-02-14T03:31:25.631Z,102418.09
2023-02-14T03:35:33.723Z,102426.94
2023-02-14T03:39:42.827Z,102435.47
2023-02-14T03:43:52.308Z,102429.75
2023-02-14T03:47:59.146Z,102435.69
2023-02-14T03:52:05.137Z,102437.28
2023-02-14T03:56:15.045Z,102426.03
2023-02-14T04:00:20.256Z,102421.59
2023-02-14T04:04:27.527Z,102430.09
2023-02-14T04:08:31.297Z,102430.09
2023-02-14T04:12:37.938Z,102432.59
2023-02-14T04:16:56.620Z,102428.56
2023-02-14T04:21:00.039Z,102431.09
2023-02-14T04:25:03.251Z,102428.53
2023-02-14T04:29:06.277Z,102427.81
2023-02-14T04:33:10.844Z,102440.56
2023-02-14T04:37:15.010Z,102430.19
2023-02-14T04:41:18.079Z,102430.47
2023-02-14T04:45:21.086Z,102421.41
2023-02-14T04:49:25.447Z,102419.09
2023-02-14T04:53:28.484Z,102410.69
2023-02-14T04:57:31.608Z,102401.69
2023-02-14T05:01:34.850Z,102395.50
2023-02-14T05:05:39.324Z,102403.00
2023-02-14T05:09:42.366Z,102389.16
2023-02-14T05:13:45.410Z,102388.47
2023-02-14T05:17:48.448Z,102392.34
2023-02-14T05:21:52.803Z,102390.22
2023-02-14T05:25:55.811Z,102393.94
2023-02-14T05:29:58.859Z,102384.00
2023-02-14T05:34:02.003Z,102380.22
2023-02-14T05:38:06.400Z,102382.75
2023-02-14T05:42:12.111Z,102392.97
2023-02-14T05:46:15.285Z,102385.72
2023-02-14T05:50:18.966Z,102381.84
2023-02-14T05:54:23.329Z,102376.31
2023-02-14T05:58:26.703Z,102386.13
2023-02-14T06:02:29.774Z,102381.69
2023-02-14T06:06:34.641Z,102379.00
2023-02-14T06:10:39.975Z,102385.91
2023-02-14T06:14:43.149Z,102380.34
2023-02-14T06:18:46.179Z,102377.69
2023-02-14T06:22:49.299Z,102383.78
2023-02-14T06:26:53.649Z,102393.63
2023-02-14T06:30:57.045Z,102394.38
2023-02-14T06:35:00.141Z,102403.88
2023-02-14T06:39:03.203Z,102409.91
2023-02-14T06:43:07.622Z,102413.06
2023-02-14T06:47:10.664Z,102401.47
2023-02-14T06:51:14.022Z,102405.72
2023-02-14T06:55:17.368Z,102405.31
2023-02-14T06:59:21.746Z,102405.91
2023-02-14T07:03:24.868Z,102396.63
2023-02-14T07:07:27.913Z,102397.47
2023-02-14T07:11:31.010Z,102397.16
2023-02-14T07:15:35.441Z,102404.72
2023-02-14T07:19:38.739Z,102404.53
2023-02-14T07:23:41.785Z,102405.19
2023-02-14T07:27:45.596Z,102410.97
2023-02-14T07:31:50.095Z,102411.22
2023-02-14T07:35:53.225Z,102416.16
2023-02-14T07:39:58.142Z,102415.88
2023-02-14T07:44:01.157Z,102420.66
2023-02-14T07:48:05.979Z,102426.81
2023-02-14T07:52:09.000Z,102426.38
2023-02-14T07:56:12.008Z,102435.81
2023-02-14T08:00:15.922Z,102420.19
2023-02-14T08:04:20.317Z,102418.34
2023-02-14T08:08:23.520Z,102409.47
2023-02-14T08:12:43.874Z,102408.31
2023-02-14T08:16:46.854Z,102384.47
2023-02-14T08:20:51.495Z,102358.09
2023-02-14T08:24:54.568Z,102346.47
2023-02-14T08:28:57.615Z,102345.41
2023-02-14T08:33:00.688Z,102336.53
2023-02-14T08:37:05.162Z,102335.91
2023-02-14T08:41:09.237Z,102333.81
2023-02-14T08:45:12.642Z,102336.94
2023-02-14T08:49:15.673Z,102338.63
2023-02-14T08:53:22.111Z,102332.50
2023-02-14T08:57:25.379Z,102329.50
2023-02-14T09:01:29.211Z,102326.59
2023-02-14T09:05:32.372Z,102326.84
2023-02-14T09:09:36.990Z,102329.06
2023-02-14T09:13:40.250Z,102328.91
2023-02-14T09:17:43.349Z,102325.00
2023-02-14T09:21:46.637Z,102320.88
2023-02-14T09:25:51.084Z,102312.38
2023-02-14T09:29:54.290Z,102321.22
2023-02-14T09:33:57.370Z,102314.13
2023-02-14T09:38:00.571Z,102313.97
2023-02-14T09:42:19.977Z,102314.59
2023-02-14T09:46:25.813Z,102312.16
2023-02-14T09:50:34.608Z,102315.88
2023-02-14T09:54:38.488Z,102316.44
2023-02-14T09:58:51.406Z,102309.44
2023-02-14T10:03:01.676Z,102309.09
2023-02-14T10:07:14.549Z,102312.13
2023-02-14T10:11:21.394Z,102308.22
2023-02-14T10:15:29.148Z,102303.22
2023-02-14T10:19:39.381Z,102299.47
2023-02-14T10:23:46.845Z,102297.66
2023-02-14T10:27:50.330Z,102306.81
2023-02-14T10:31:59.745Z,102295.63
2023-02-14T10:36:07.345Z,102295.72
2023-02-14T10:40:36.438Z,102286.25
2023-02-14T10:44:48.647Z,102289.03
2023-02-14T10:49:01.750Z,102286.50
2023-02-14T10:53:15.815Z,102277.47
2023-02-14T10:57:24.161Z,102281.03
2023-02-14T11:01:27.293Z,102282.09
2023-02-14T11:05:35.716Z,102284.53
2023-02-14T11:09:38.724Z,102277.91
2023-02-14T11:13:42.559Z,102271.25
2023-02-14T11:17:45.640Z,102263.00
2023-02-14T11:21:51.738Z,102257.13
2023-02-14T11:25:56.939Z,102265.97
2023-02-14T11:30:02.285Z,102255.13
2023-02-14T11:34:07.818Z,102250.03
2023-02-14T11:38:31.579Z,102250.72
2023-02-14T11:42:40.121Z,102249.75
2023-02-14T11:46:52.846Z,102228.03
2023-02-14T11:51:01.581Z,102228.66
2023-02-14T11:55:07.456Z,102233.34
2023-02-14T11:59:15.417Z,102223.03
2023-02-14T12:03:20.556Z,102209.53
2023-02-14T12:07:29.194Z,102206.56
2023-02-14T12:11:33.595Z,102211.31
2023-02-14T12:15:40.398Z,102199.66
2023-02-14T12:19:50.101Z,102195.41
2023-02-14T12:24:04.354Z,102192.19
2023-02-14T12:28:15.753Z,102187.72
2023-02-14T12:32:23.634Z,102188.28
2023-02-14T12:36:46.313Z,102169.63
2023-02-14T12:40:58.228Z,102168.22
2023-02-14T12:45:11.547Z,102169.41
2023-02-14T12:49:49.654Z,102156.34
2023-02-14T12:54:10.439Z,102144.44
2023-02-14T12:58:30.633Z,102128.19
2023-02-14T13:03:01.841Z,102139.81
2023-02-14T13:07:13.455Z,102132.19
2023-02-14T13:11:29.064Z,102125.06
2023-02-14T13:15:40.764Z,102124.34
2023-02-14T13:19:50.314Z,102114.75
2023-02-14T13:23:59.180Z,102115.59
2023-02-14T13:28:05.629Z,102105.78
2023-02-14T13:32:15.244Z,102107.16
2023-02-14T13:36:20.448Z,102103.91
2023-02-14T13:40:26.325Z,102095.88
2023-02-14T13:44:47.691Z,102091.38
2023-02-14T13:49:01.996Z,102085.88
2023-02-14T13:53:06.616Z,102075.66
2023-02-14T13:57:31.520Z,102072.84
2023-02-14T14:01:39.045Z,102065.03
2023-02-14T14:05:58.132Z,102058.56
2023-02-14T14:10:05.575Z,102067.59
2023-02-14T14:14:37.208Z,102048.91
2023-02-14T14:18:43.813Z,102056.47
2023-02-14T14:22:48.772Z,102057.59
2023-02-14T14:27:00.619Z,102060.28
2023-02-14T14:31:23.992Z,102059.50
2023-02-14T14:35:38.636Z,102056.91
2023-02-14T14:39:54.694Z,102046.78
2023-02-14T14:44:03.313Z,102044.31
2023-02-14T14:48:18.923Z,102032.34
2023-02-14T14:52:43.051Z,102028.63
2023-02-14T14:57:03.025Z,102034.09
2023-02-14T15:01:34.942Z,102035.25
2023-02-14T15:05:53.150Z,102032.25
2023-02-14T15:10:08.951Z,102029.63
2023-02-14T15:14:28.966Z,102024.22
2023-02-14T15:18:46.980Z,102019.88
2023-02-14T15:23:02.995Z,102018.03
2023-02-14T15:27:36.327Z,102016.59
2023-02-14T15:32:14.097Z,102012.56
2023-02-14T15:36:56.066Z,102016.56
2023-02-14T15:41:32.993Z,102007.47
2023-02-14T15:46:14.045Z,102005.34
2023-02-14T15:50:59.487Z,102007.81
2023-02-14T15:55:44.295Z,102003.22
2023-02-14T16:00:31.992Z,101997.13
2023-02-14T16:05:08.997Z,102002.63
2023-02-14T16:09:47.013Z,102007.91
2023-02-14T16:14:48.999Z,102011.38
2023-02-14T16:19:50.986Z,102010.56
2023-02-14T16:24:28.000Z,102010.16
2023-02-14T16:29:04.992Z,102018.88
2023-02-14T16:33:44.998Z,102025.72
2023-02-14T16:38:26.991Z,102010.53
2023-02-14T16:43:05.988Z,102012.53
2023-02-14T16:47:42.984Z,102011.63
2023-02-14T16:52:25.000Z,102015.53
2023-02-14T16:57:07.014Z,102000.50
2023-02-14T17:01:44.119Z,102001.19
2023-02-14T17:06:20.995Z,102015.25
2023-02-14T17:11:01.214Z,102014.59
2023-02-14T17:15:39.029Z,102017.50
2023-02-14T17:20:15.995Z,102020.19
2023-02-14T17:24:53.017Z,102024.88
2023-02-14T17:29:31.064Z,102028.22
2023-02-14T17:34:08.253Z,102019.75
2023-02-14T17:38:45.031Z,102029.22
2023-02-14T17:43:22.033Z,102032.72
2023-02-14T17:48:00.035Z,102028.97
2023-02-14T17:52:37.032Z,102028.59
2023-02-14T17:57:14.037Z,102036.88
2023-02-14T18:01:51.092Z,102033.97
2023-02-14T18:06:30.056Z,102037.03
2023-02-14T18:11:07.074Z,102052.69
2023-02-14T18:15:44.066Z,102054.53
2023-02-14T18:20:22.072Z,102045.19
2023-02-14T18:25:00.061Z,102042.97
2023-02-14T18:29:38.051Z,102046.28
2023-02-14T18:34:15.056Z,102045.78
2023-02-14T18:38:53.048Z,102044.47
2023-02-14T18:43:31.056Z,102037.38
2023-02-14T18:48:08.056Z,102036.97
2023-02-14T18:52:38.081Z,102037.75
2023-02-14T18:57:15.018Z,102033.22
2023-02-14T19:01:57.125Z,102031.94
2023-02-14T19:06:36.095Z,102025.03
2023-02-14T19:11:13.055Z,102024.06
2023-02-14T19:15:50.071Z,102020.94
2023-02-14T19:20:29.085Z,102018.50
2023-02-14T19:25:07.065Z,102016.00
2023-02-14T19:29:45.087Z,102010.91
2023-02-14T19:34:23.126Z,102004.66
2023-02-14T19:39:03.201Z,102005.81
2023-02-14T19:43:40.067Z,101992.69
2023-02-14T19:48:17.079Z,101988.09
2023-02-14T19:52:54.121Z,101983.19
2023-02-14T19:57:32.067Z,101975.03
2023-02-14T20:02:10.340Z,101969.50
2023-02-14T20:06:47.125Z,101972.03
2023-02-14T20:11:34.074Z,101964.38
2023-02-14T20:16:12.101Z,101959.13
2023-02-14T20:21:06.110Z,101967.16
2023-02-14T20:25:43.107Z,101964.38
2023-02-14T20:30:21.099Z,101961.81
2023-02-14T20:34:59.120Z,101975.38
2023-02-14T20:39:38.167Z,101975.25
2023-02-14T20:44:18.120Z,101979.41
2023-02-14T20:48:55.099Z,101976.25
2023-02-14T20:53:33.111Z,101977.78
2023-02-14T20:58:10.147Z,101979.94
2023-02-14T21:02:47.096Z,101981.81
2023-02-14T21:07:24.113Z,101983.28
2023-02-14T21:12:02.137Z,101977.00
2023-02-14T21:16:32.117Z,101976.56
2023-02-14T21:21:09.137Z,101978.13
2023-02-14T21:25:46.114Z,101973.53
2023-02-14T21:30:25.149Z,101971.84
2023-02-14T21:35:02.117Z,101967.69
2023-02-14T21:39:42.134Z,101962.09
2023-02-14T21:44:40.155Z,101957.25
2023-02-14T21:49:37.135Z,101946.81
2023-02-14T21:54:07.134Z,101945.53
2023-02-14T21:58:45.126Z,101944.91
2023-02-14T22:03:22.159Z,101941.38
2023-02-14T22:08:00.138Z,101937.50
2023-02-14T22:12:37.149Z,101938.03
2023-02-14T22:17:14.147Z,101937.44
2023-02-14T22:21:51.115Z,101933.00
2023-02-14T22:26:31.142Z,101932.72
2023-02-14T22:31:08.198Z,101939.34
2023-02-14T22:35:45.147Z,101935.44
2023-02-14T22:40:23.127Z,101935.25
2023-02-14T22:45:02.143Z,101938.03
2023-02-14T22:49:39.162Z,101937.69
2023-02-14T22:54:19.146Z,101937.44
2023-02-14T22:58:56.156Z,101941.97
2023-02-14T23:03:34.161Z,101938.00
2023-02-14T23:08:11.151Z,101932.53
2023-02-14T23:13:05.141Z,101928.13
2023-02-14T23:17:59.168Z,101925.41
2023-02-14T23:22:39.168Z,101935.31
2023-02-14T23:27:17.175Z,101935.38
2023-02-14T23:31:54.219Z,101927.19
2023-02-14T23:36:31.169Z,101933.31
2023-02-14T23:41:26.163Z,101919.31
2023-02-14T23:46:03.541Z,101917.53
2023-02-14T23:50:40.160Z,101921.16
2023-02-14T23:55:18.216Z,101912.66
2023-02-14T23:59:56.184Z,101911.50
